createdAt,value
2022-08-17T06:29:54.384Z,24.70
2022-08-17T06:32:23.259Z,24.60
2022-08-17T06:34:51.563Z,24.60
2022-08-17T06:37:48.972Z,24.70
2022-08-17T06:40:33.618Z,24.80
2022-08-17T06:43:15.675Z,24.90
2022-08-17T06:45:49.562Z,25.00
2022-08-17T06:48:25.651Z,25.00
2022-08-17T06:50:59.934Z,25.10
2022-08-17T06:53:33.105Z,25.20
2022-08-17T06:56:06.008Z,25.30
2022-08-17T06:58:40.107Z,25.40
2022-08-17T07:01:12.447Z,25.50
2022-08-17T07:03:47.687Z,25.60
2022-08-17T07:06:18.393Z,25.60
2022-08-17T07:08:54.159Z,25.70
2022-08-17T07:11:28.478Z,25.80
2022-08-17T07:14:05.520Z,26.00
2022-08-17T07:16:39.760Z,26.10
2022-08-17T07:19:10.984Z,26.10
2022-08-17T07:21:50.261Z,26.10
2022-08-17T07:24:35.817Z,26.20
2022-08-17T07:27:14.244Z,26.20
2022-08-17T07:29:50.999Z,26.20
2022-08-17T07:32:25.111Z,26.20
2022-08-17T07:35:11.458Z,26.20
2022-08-17T07:37:42.420Z,26.30
2022-08-17T07:40:27.119Z,26.30
2022-08-17T07:43:07.323Z,26.20
2022-08-17T07:46:15.705Z,26.20
2022-08-17T07:48:46.442Z,26.30
2022-08-17T07:51:19.068Z,26.40
2022-08-17T07:53:48.453Z,26.40
2022-08-17T07:56:36.324Z,26.50
2022-08-17T07:59:10.169Z,26.50
2022-08-17T08:01:41.693Z,26.50
2022-08-17T08:04:59.007Z,26.60
2022-08-17T08:07:27.111Z,26.60
2022-08-17T08:10:05.342Z,26.70
2022-08-17T08:12:36.211Z,26.80
2022-08-17T08:15:11.007Z,26.80
2022-08-17T08:17:52.061Z,26.90
2022-08-17T08:20:52.763Z,26.90
2022-08-17T08:23:25.762Z,26.80
2022-08-17T08:26:12.360Z,26.90
2022-08-17T08:28:52.546Z,26.90
2022-08-17T08:31:33.461Z,26.90
2022-08-17T08:34:44.585Z,27.10
2022-08-17T08:37:19.142Z,26.90
2022-08-17T08:39:59.511Z,27.00
2022-08-17T08:42:36.663Z,27.00
2022-08-17T08:45:13.783Z,27.10
2022-08-17T08:47:58.850Z,27.10
2022-08-17T08:50:47.667Z,27.20
2022-08-17T08:53:27.405Z,27.30
2022-08-17T08:56:06.056Z,27.40
2022-08-17T08:58:43.612Z,27.40
2022-08-17T09:01:22.107Z,27.50
2022-08-17T09:04:25.026Z,27.70
2022-08-17T17:06:10.207Z,27.80
2022-08-17T17:08:46.778Z,27.80
2022-08-17T17:11:18.318Z,27.70
2022-08-17T17:13:54.190Z,27.70
2022-08-17T17:16:33.020Z,27.60
2022-08-17T17:19:10.386Z,27.60
2022-08-17T17:21:56.016Z,27.50
2022-08-17T17:24:32.088Z,27.50
2022-08-17T17:27:17.661Z,27.40
2022-08-17T17:30:03.194Z,27.50
2022-08-17T17:32:39.020Z,27.40
2022-08-17T17:35:13.002Z,27.40
2022-08-17T17:37:43.965Z,27.40
2022-08-17T17:40:19.154Z,27.40
2022-08-17T17:42:49.456Z,27.30
2022-08-17T17:45:23.392Z,27.30
2022-08-17T17:47:53.781Z,27.30
2022-08-17T17:50:30.698Z,27.20
2022-08-17T17:53:04.784Z,27.20
2022-08-17T17:55:45.276Z,27.20
